createdAt,value
2022-09-24T00:01:33.938Z,6.63
2022-09-24T00:04:05.906Z,7.95
2022-09-24T00:06:36.397Z,10.85
2022-09-24T00:09:03.412Z,6.78
2022-09-24T00:11:30.326Z,9.85
2022-09-24T00:13:57.486Z,10.00
2022-09-24T00:16:25.920Z,8.25
2022-09-24T00:18:53.602Z,4.43
2022-09-24T00:21:25.141Z,9.77
2022-09-24T00:23:53.526Z,8.23
2022-09-24T00:26:39.179Z,16.98
2022-09-24T00:29:06.208Z,5.88
2022-09-24T00:31:33.177Z,9.27
2022-09-24T00:34:00.963Z,10.57
2022-09-24T00:36:27.906Z,10.70
2022-09-24T00:38:56.364Z,9.82
2022-09-24T00:41:25.192Z,8.10
2022-09-24T00:43:52.109Z,6.72
2022-09-24T00:46:48.273Z,10.05
2022-09-24T00:49:16.927Z,9.13
2022-09-24T00:51:45.298Z,8.75
2022-09-24T00:54:14.924Z,5.05
2022-09-24T00:56:41.772Z,8.40
2022-09-24T00:59:09.021Z,5.03
2022-09-24T01:01:35.881Z,16.65
2022-09-24T01:04:02.682Z,8.40
2022-09-24T01:06:29.487Z,8.02
2022-09-24T01:08:56.479Z,6.57
2022-09-24T01:11:29.437Z,14.18
2022-09-24T01:14:20.888Z,6.20
2022-09-24T01:16:53.509Z,8.95
2022-09-24T01:19:48.266Z,7.30
2022-09-24T01:22:38.519Z,12.82
2022-09-24T01:25:28.788Z,9.52
2022-09-24T01:28:19.317Z,4.72
2022-09-24T01:30:47.200Z,10.45
2022-09-24T01:33:17.793Z,14.45
2022-09-24T01:35:46.019Z,6.15
2022-09-24T01:38:21.504Z,17.60
2022-09-24T01:40:48.599Z,8.68
2022-09-24T01:43:16.128Z,8.23
2022-09-24T01:45:42.945Z,8.40
2022-09-24T01:48:09.737Z,6.93
2022-09-24T01:50:56.591Z,9.98
2022-09-24T01:53:25.497Z,9.10
2022-09-24T01:55:58.737Z,9.43
2022-09-24T01:58:33.717Z,11.35
2022-09-24T02:01:06.058Z,10.55
2022-09-24T02:03:36.333Z,6.45
2022-09-24T02:06:08.874Z,13.10
2022-09-24T02:08:45.747Z,6.68
2022-09-24T02:11:16.086Z,9.80
2022-09-24T02:14:06.800Z,8.18
2022-09-24T02:16:36.108Z,8.93
2022-09-24T02:19:09.935Z,6.80
2022-09-24T02:21:36.861Z,12.80
2022-09-24T02:24:07.856Z,8.73
2022-09-24T02:26:34.580Z,17.25
2022-09-24T02:29:01.349Z,12.82
2022-09-24T02:31:32.437Z,8.25
2022-09-24T02:34:19.255Z,7.55
2022-09-24T02:36:46.394Z,8.40
2022-09-24T02:39:13.813Z,8.25
2022-09-24T02:41:42.816Z,12.45
2022-09-24T02:44:09.613Z,9.00
2022-09-24T02:46:36.405Z,13.00
2022-09-24T02:49:03.155Z,16.27
2022-09-24T02:51:30.568Z,15.68
2022-09-24T02:53:57.392Z,14.23
2022-09-24T02:56:24.071Z,19.83
2022-09-24T02:58:50.736Z,20.20
2022-09-24T03:01:17.561Z,22.85
2022-09-24T03:03:44.271Z,20.67
2022-09-24T03:06:12.721Z,17.83
2022-09-24T03:08:40.435Z,15.20
2022-09-24T03:11:12.177Z,21.23
2022-09-24T03:13:41.961Z,19.75
2022-09-24T03:16:08.927Z,22.10
2022-09-24T03:18:35.859Z,16.90
2022-09-24T03:21:04.696Z,21.25
2022-09-24T03:23:31.608Z,14.52
2022-09-24T03:25:58.949Z,14.98
2022-09-24T03:28:25.956Z,12.52
2022-09-24T03:31:02.015Z,15.40
2022-09-24T03:33:33.509Z,13.90
2022-09-24T03:36:02.023Z,10.88
2022-09-24T03:38:29.520Z,13.20
2022-09-24T03:40:57.347Z,11.57
2022-09-24T03:43:24.375Z,12.93
2022-09-24T03:45:51.164Z,12.13
2022-09-24T03:48:18.339Z,12.20
2022-09-24T03:50:46.127Z,13.63
2022-09-24T03:53:13.566Z,9.70
2022-09-24T03:55:54.420Z,12.32
2022-09-24T03:58:21.272Z,14.95
2022-09-24T04:00:47.987Z,13.68
2022-09-24T04:03:14.742Z,8.32
2022-09-24T04:05:42.171Z,14.40
2022-09-24T04:08:08.927Z,12.02
2022-09-24T04:10:35.727Z,22.83
2022-09-24T04:13:02.882Z,15.65
2022-09-24T04:15:29.967Z,16.30
2022-09-24T04:17:58.086Z,13.70
2022-09-24T04:20:28.679Z,14.85
2022-09-24T04:22:56.292Z,15.55
2022-09-24T04:25:23.491Z,17.77
2022-09-24T04:27:58.044Z,17.10
2022-09-24T04:30:25.096Z,10.73
2022-09-24T04:32:52.084Z,12.10
2022-09-24T04:35:19.721Z,8.90
2022-09-24T04:37:46.588Z,13.10
2022-09-24T04:40:13.395Z,15.45
2022-09-24T04:42:40.500Z,14.60
2022-09-24T04:45:08.023Z,14.93
2022-09-24T04:47:35.952Z,18.08
2022-09-24T04:50:03.921Z,18.27
2022-09-24T04:52:32.692Z,21.67
2022-09-24T04:55:00.270Z,16.25
2022-09-24T04:57:27.746Z,13.13
2022-09-24T04:59:54.523Z,19.48
2022-09-24T05:02:21.514Z,13.63
2022-09-24T05:04:48.280Z,13.20
2022-09-24T05:07:15.096Z,15.23
2022-09-24T05:09:41.832Z,20.60
2022-09-24T05:12:08.797Z,15.88
2022-09-24T05:14:35.623Z,7.40
2022-09-24T05:17:02.400Z,17.13
2022-09-24T05:19:29.180Z,14.63
2022-09-24T05:21:56.085Z,11.57
2022-09-24T05:24:22.817Z,11.90
2022-09-24T05:27:08.043Z,15.45
2022-09-24T05:29:34.815Z,11.93
2022-09-24T05:32:05.622Z,17.48
2022-09-24T05:34:32.896Z,14.73
2022-09-24T05:37:00.156Z,18.55
2022-09-24T05:39:32.839Z,13.38
2022-09-24T05:42:01.480Z,11.23
2022-09-24T05:44:28.224Z,11.32
2022-09-24T05:46:54.977Z,16.20
2022-09-24T05:49:21.784Z,18.17
2022-09-24T05:51:50.044Z,13.63
2022-09-24T05:54:17.514Z,18.35
2022-09-24T05:56:44.356Z,15.02
2022-09-24T05:59:11.327Z,20.27
2022-09-24T06:01:38.185Z,14.27
2022-09-24T06:04:08.836Z,19.10
2022-09-24T06:06:36.181Z,23.90
2022-09-24T06:09:03.257Z,11.55
2022-09-24T06:11:39.184Z,14.60
2022-09-24T06:14:08.775Z,15.65
2022-09-24T06:16:35.904Z,10.40
2022-09-24T06:19:02.878Z,14.77
2022-09-24T06:21:29.735Z,12.77
2022-09-24T06:23:56.594Z,15.02
2022-09-24T06:26:23.361Z,7.00
2022-09-24T06:28:50.080Z,8.98
2022-09-24T06:31:16.917Z,14.00
2022-09-24T06:33:43.814Z,15.57
2022-09-24T06:36:11.496Z,14.30
2022-09-24T06:38:40.416Z,17.52
2022-09-24T06:41:07.387Z,13.25
2022-09-24T06:43:34.236Z,13.82
2022-09-24T06:46:01.186Z,11.68
2022-09-24T06:48:28.196Z,8.15
2022-09-24T06:50:56.389Z,10.90
2022-09-24T06:53:23.470Z,9.77
2022-09-24T06:55:50.399Z,10.10
2022-09-24T06:58:20.091Z,12.63
2022-09-24T07:01:01.771Z,12.90
2022-09-24T07:03:30.264Z,14.88
2022-09-24T07:05:59.338Z,11.88
2022-09-24T07:08:26.042Z,11.25
2022-09-24T07:10:52.805Z,10.82
2022-09-24T07:13:21.315Z,16.83
2022-09-24T07:15:52.306Z,13.65
2022-09-24T07:18:19.405Z,12.35
2022-09-24T07:20:54.668Z,14.30
2022-09-24T07:23:21.687Z,10.80
2022-09-24T07:25:48.445Z,11.93
2022-09-24T07:28:18.830Z,12.38
2022-09-24T07:30:45.589Z,14.68
2022-09-24T07:33:12.926Z,12.93
2022-09-24T07:35:39.885Z,11.70
2022-09-24T07:38:08.717Z,20.23
2022-09-24T07:40:35.546Z,12.55
2022-09-24T07:43:02.475Z,13.85
2022-09-24T07:45:29.735Z,10.73
2022-09-24T07:48:03.782Z,13.82
2022-09-24T07:50:32.058Z,11.13
2022-09-24T07:52:58.907Z,11.98
2022-09-24T07:55:26.074Z,11.30
2022-09-24T07:57:53.949Z,11.15
2022-09-24T08:00:21.277Z,15.32
2022-09-24T08:02:48.368Z,24.17
2022-09-24T08:05:16.632Z,10.73
2022-09-24T08:07:43.835Z,15.98
2022-09-24T08:10:10.985Z,13.85
2022-09-24T08:12:37.773Z,18.38
2022-09-24T08:15:04.848Z,14.73
2022-09-24T08:17:31.647Z,12.20
2022-09-24T08:19:58.980Z,12.07
2022-09-24T08:22:26.456Z,17.45
2022-09-24T08:24:53.386Z,14.73
2022-09-24T08:27:23.844Z,13.27
2022-09-24T08:29:51.200Z,8.70
2022-09-24T08:32:20.810Z,10.73
2022-09-24T08:34:47.584Z,11.55
2022-09-24T08:37:14.307Z,10.30
2022-09-24T08:39:41.102Z,11.88
2022-09-24T08:42:25.433Z,14.05
2022-09-24T08:45:11.202Z,11.15
2022-09-24T08:47:38.698Z,12.68
2022-09-24T08:50:30.639Z,7.10
2022-09-24T08:53:14.203Z,11.27
2022-09-24T08:55:48.623Z,12.80
2022-09-24T08:58:53.062Z,16.48
2022-09-24T09:01:50.671Z,14.13
2022-09-24T09:04:33.904Z,12.15
2022-09-24T09:07:18.842Z,12.63
2022-09-24T09:10:00.723Z,12.77
2022-09-24T09:12:34.413Z,11.85
2022-09-24T09:15:08.607Z,13.18
2022-09-24T09:17:42.376Z,12.48
2022-09-24T09:22:48.804Z,11.82
2022-09-24T09:25:29.905Z,11.00
2022-09-24T09:28:02.845Z,10.20
2022-09-24T09:30:43.845Z,8.30
2022-09-24T09:33:20.136Z,11.20
2022-09-24T09:36:18.767Z,14.40
2022-09-24T09:38:55.131Z,11.30
2022-09-24T09:41:53.160Z,10.23
2022-09-24T09:44:26.021Z,9.95
2022-09-24T09:47:01.286Z,6.78
2022-09-24T09:49:29.230Z,8.95
2022-09-24T09:51:57.427Z,5.78
2022-09-24T09:54:36.655Z,4.28
2022-09-24T09:57:03.593Z,10.00
2022-09-24T09:59:30.771Z,4.72
2022-09-24T10:01:57.876Z,6.10
2022-09-24T10:04:41.205Z,6.60
2022-09-24T10:07:12.743Z,9.73
2022-09-24T10:09:40.218Z,4.32
2022-09-24T10:12:17.015Z,8.50
2022-09-24T10:14:44.056Z,8.98
2022-09-24T10:17:16.141Z,8.68
2022-09-24T10:19:46.103Z,10.07
2022-09-24T10:22:22.049Z,4.22
2022-09-24T10:24:48.873Z,8.77
2022-09-24T10:27:30.572Z,4.95
2022-09-24T10:30:16.093Z,5.50
2022-09-24T10:32:42.925Z,6.38
2022-09-24T10:35:32.425Z,5.88
2022-09-24T10:37:59.890Z,5.65
2022-09-24T10:40:30.980Z,6.75
2022-09-24T10:42:59.661Z,3.55
2022-09-24T10:45:57.470Z,5.13
2022-09-24T10:48:28.200Z,6.05
2022-09-24T10:50:58.135Z,6.93
2022-09-24T10:53:32.199Z,4.18
2022-09-24T10:56:30.904Z,5.38
2022-09-24T10:59:20.032Z,4.53
2022-09-24T11:01:58.913Z,3.58
2022-09-24T11:04:41.411Z,3.97
2022-09-24T11:07:19.853Z,6.28
2022-09-24T11:10:01.212Z,9.85
2022-09-24T11:12:59.686Z,2.55
2022-09-24T11:16:04.115Z,7.78
2022-09-24T11:19:00.447Z,4.35
2022-09-24T11:21:46.359Z,6.82
2022-09-24T11:24:31.823Z,4.45
2022-09-24T11:27:07.887Z,4.03
2022-09-24T11:29:51.855Z,8.45
2022-09-24T11:32:43.594Z,4.57
2022-09-24T11:35:52.090Z,4.03
2022-09-24T11:38:27.328Z,5.22
2022-09-24T11:40:57.888Z,4.22
2022-09-24T11:43:42.132Z,2.63
2022-09-24T11:46:27.876Z,4.78
2022-09-24T11:49:05.267Z,2.85
2022-09-24T11:51:45.885Z,5.78
2022-09-24T11:54:30.710Z,10.20
2022-09-24T11:57:12.945Z,2.85
2022-09-24T12:00:07.612Z,5.97
2022-09-24T12:02:43.671Z,6.93
2022-09-24T12:05:14.489Z,8.07
2022-09-24T12:08:04.416Z,7.63
2022-09-24T12:10:40.141Z,11.55
2022-09-24T12:13:31.343Z,8.10
2022-09-24T12:16:06.925Z,2.90
2022-09-24T12:18:35.671Z,4.03
2022-09-24T12:23:51.439Z,3.50
2022-09-24T12:26:18.360Z,7.20
2022-09-24T12:29:28.675Z,9.27
2022-09-24T12:32:17.524Z,1.98
2022-09-24T12:34:47.456Z,3.25
2022-09-24T12:37:16.797Z,3.78
2022-09-24T12:39:58.035Z,1.75
2022-09-24T12:42:25.998Z,8.55
2022-09-24T12:44:54.838Z,2.65
2022-09-24T12:47:26.446Z,3.03
2022-09-24T12:50:01.247Z,7.63
2022-09-24T12:52:41.099Z,4.65
2022-09-24T12:55:29.161Z,1.88
2022-09-24T12:58:06.127Z,2.30
2022-09-24T13:00:39.575Z,1.85
2022-09-24T13:03:07.119Z,3.63
2022-09-24T13:05:46.538Z,3.45
2022-09-24T13:08:23.218Z,2.35
2022-09-24T13:10:58.755Z,5.82
2022-09-24T13:13:31.844Z,3.65
2022-09-24T13:16:02.861Z,2.00
2022-09-24T13:18:29.816Z,4.20
2022-09-24T13:21:05.602Z,3.47
2022-09-24T13:23:43.119Z,3.28
2022-09-24T13:26:13.186Z,2.55
2022-09-24T13:28:51.290Z,2.22
2022-09-24T13:31:22.193Z,4.95
2022-09-24T13:33:51.648Z,4.00
2022-09-24T13:36:40.756Z,1.80
2022-09-24T13:39:20.969Z,4.45
2022-09-24T13:42:10.269Z,6.50
2022-09-24T13:44:44.263Z,4.25
2022-09-24T13:47:22.189Z,5.03
2022-09-24T13:49:49.939Z,3.65
2022-09-24T13:52:46.353Z,2.47
2022-09-24T13:55:31.307Z,3.00
2022-09-24T13:57:58.846Z,3.20
2022-09-24T14:00:27.628Z,2.13
2022-09-24T14:02:57.212Z,3.67
2022-09-24T14:05:24.450Z,6.13
2022-09-24T14:07:56.007Z,2.13
2022-09-24T14:10:24.998Z,3.17
2022-09-24T14:13:02.385Z,3.08
2022-09-24T14:15:29.319Z,1.83
2022-09-24T14:17:58.140Z,2.67
2022-09-24T14:20:26.685Z,2.78
2022-09-24T14:22:53.585Z,1.40
2022-09-24T14:25:39.734Z,5.38
2022-09-24T14:28:06.855Z,4.68
2022-09-24T14:30:34.014Z,2.03
2022-09-24T14:33:06.132Z,4.38
2022-09-24T14:35:37.318Z,2.55
2022-09-24T14:38:18.695Z,6.38
2022-09-24T14:41:01.545Z,3.80
2022-09-24T14:43:42.165Z,5.18
2022-09-24T14:46:17.484Z,5.82
2022-09-24T14:48:44.928Z,1.80
2022-09-24T14:51:26.743Z,2.67
2022-09-24T14:54:02.054Z,4.78
2022-09-24T14:56:31.031Z,4.15
2022-09-24T14:58:58.117Z,4.65
2022-09-24T15:01:31.974Z,2.83
2022-09-24T15:04:03.530Z,5.20
2022-09-24T15:06:35.222Z,3.45
2022-09-24T15:09:29.690Z,5.60
2022-09-24T15:12:09.427Z,5.35
2022-09-24T15:14:36.767Z,7.00
2022-09-24T15:17:18.689Z,1.48
2022-09-24T15:19:46.176Z,1.70
2022-09-24T15:22:13.405Z,1.77
2022-09-24T15:24:40.172Z,4.25
2022-09-24T15:27:19.919Z,3.25
2022-09-24T15:29:46.805Z,3.33
2022-09-24T15:32:18.483Z,5.40
2022-09-24T15:34:45.699Z,3.28
2022-09-24T15:37:13.328Z,2.75
2022-09-24T15:39:40.456Z,3.28
2022-09-24T15:42:08.314Z,3.38
2022-09-24T15:44:35.145Z,1.58
2022-09-24T15:47:01.888Z,2.58
2022-09-24T15:49:28.615Z,1.65
2022-09-24T15:52:01.887Z,1.38
2022-09-24T15:54:28.955Z,2.92
2022-09-24T15:56:55.781Z,2.03
2022-09-24T15:59:23.308Z,2.20
2022-09-24T16:01:51.359Z,1.08
2022-09-24T16:04:18.273Z,0.73
2022-09-24T16:06:45.076Z,4.35
2022-09-24T16:09:12.118Z,1.33
2022-09-24T16:11:38.893Z,2.85
2022-09-24T16:14:05.776Z,1.25
2022-09-24T16:16:32.600Z,3.22
2022-09-24T16:18:59.407Z,1.27
2022-09-24T16:21:26.147Z,1.20
2022-09-24T16:23:56.383Z,4.47
2022-09-24T16:26:23.500Z,0.32
2022-09-24T16:28:51.593Z,0.85
2022-09-24T16:31:21.331Z,1.80
2022-09-24T16:33:48.669Z,0.63
2022-09-24T16:36:15.657Z,3.65
2022-09-24T16:38:42.440Z,0.70
2022-09-24T16:41:10.593Z,0.60
2022-09-24T16:43:37.421Z,1.60
2022-09-24T16:46:05.675Z,2.50
2022-09-24T16:48:32.509Z,4.65
2022-09-24T16:51:10.692Z,2.30
2022-09-24T16:53:37.873Z,2.72
2022-09-24T16:56:04.671Z,0.75
2022-09-24T16:58:32.791Z,2.75
2022-09-24T17:00:59.610Z,4.38
2022-09-24T17:03:26.346Z,2.05
2022-09-24T17:05:53.118Z,0.90
2022-09-24T17:08:19.854Z,1.40
2022-09-24T17:10:51.632Z,1.05
2022-09-24T17:13:19.376Z,0.60
2022-09-24T17:15:46.177Z,1.88
2022-09-24T17:18:12.966Z,0.77
2022-09-24T17:20:39.737Z,6.57
2022-09-24T17:23:06.873Z,4.93
2022-09-24T17:25:33.594Z,3.25
2022-09-24T17:28:02.079Z,3.83
2022-09-24T17:30:28.843Z,4.50
2022-09-24T17:32:55.612Z,4.67
2022-09-24T17:35:22.877Z,3.75
2022-09-24T17:37:49.725Z,2.35
2022-09-24T17:40:22.941Z,1.48
2022-09-24T17:42:51.710Z,1.40
2022-09-24T17:45:18.441Z,2.85
2022-09-24T17:47:57.011Z,8.48
2022-09-24T17:50:24.229Z,2.63
2022-09-24T17:52:50.956Z,4.68
2022-09-24T17:55:17.701Z,4.45
2022-09-24T17:57:44.425Z,1.55
2022-09-24T18:00:11.585Z,1.90
2022-09-24T18:02:38.415Z,2.83
2022-09-24T18:05:06.298Z,4.00
2022-09-24T18:07:32.996Z,4.40
2022-09-24T18:09:59.713Z,1.50
2022-09-24T18:12:26.699Z,1.70
2022-09-24T18:14:53.409Z,2.00
2022-09-24T18:17:20.123Z,5.60
2022-09-24T18:19:46.831Z,6.50
2022-09-24T18:22:13.666Z,2.55
2022-09-24T18:24:41.228Z,2.67
2022-09-24T18:27:07.949Z,2.55
2022-09-24T18:29:35.014Z,2.90
2022-09-24T18:32:01.983Z,3.20
2022-09-24T18:34:28.841Z,1.45
2022-09-24T18:36:55.671Z,1.77
2022-09-24T18:39:25.476Z,4.85
2022-09-24T18:41:52.710Z,5.05
2022-09-24T18:44:19.734Z,1.05
2022-09-24T18:46:46.751Z,4.38
2022-09-24T18:49:13.546Z,3.17
2022-09-24T18:51:40.312Z,1.65
2022-09-24T18:54:08.585Z,4.85
2022-09-24T18:56:36.289Z,1.92
2022-09-24T18:59:09.403Z,4.38
2022-09-24T19:04:04.469Z,2.53
2022-09-24T19:06:31.445Z,2.08
2022-09-24T19:08:58.240Z,3.78
2022-09-24T19:11:24.970Z,4.10
2022-09-24T19:13:53.158Z,3.63
2022-09-24T19:16:21.257Z,2.65
2022-09-24T19:18:48.061Z,4.30
2022-09-24T19:21:15.862Z,1.08
2022-09-24T19:23:44.704Z,2.03
2022-09-24T19:26:12.144Z,2.50
2022-09-24T19:28:40.879Z,2.03
2022-09-24T19:31:16.492Z,4.05
2022-09-24T19:33:44.185Z,6.43
2022-09-24T19:36:11.444Z,3.78
2022-09-24T19:38:38.354Z,4.47
2022-09-24T19:41:11.442Z,2.00
2022-09-24T19:43:38.562Z,5.45
2022-09-24T19:46:07.165Z,3.72
2022-09-24T19:48:37.767Z,7.63
2022-09-24T19:51:09.493Z,5.32
2022-09-24T19:53:36.437Z,3.33
2022-09-24T19:56:06.998Z,6.53
2022-09-24T19:58:33.757Z,7.38
2022-09-24T20:01:02.026Z,5.05
2022-09-24T20:03:28.896Z,4.78
2022-09-24T20:05:55.588Z,5.07
2022-09-24T20:08:23.374Z,7.65
2022-09-24T20:10:50.093Z,5.20
2022-09-24T20:13:17.133Z,3.20
2022-09-24T20:15:44.085Z,5.70
2022-09-24T20:18:11.805Z,6.03
2022-09-24T20:20:39.917Z,3.05
2022-09-24T20:23:10.921Z,3.08
2022-09-24T20:25:56.455Z,3.72
2022-09-24T20:28:23.220Z,4.00
2022-09-24T20:30:50.216Z,4.65
2022-09-24T20:33:18.524Z,4.15
2022-09-24T20:35:45.625Z,4.78
2022-09-24T20:38:12.663Z,4.63
2022-09-24T20:40:39.945Z,9.15
2022-09-24T20:43:06.783Z,6.78
2022-09-24T20:45:33.527Z,11.95
2022-09-24T20:48:00.650Z,4.05
2022-09-24T20:50:27.508Z,6.50
2022-09-24T20:52:54.233Z,6.20
2022-09-24T20:55:20.945Z,5.65
2022-09-24T20:57:48.585Z,7.78
2022-09-24T21:00:15.492Z,6.45
2022-09-24T21:02:42.409Z,2.70
2022-09-24T21:05:09.655Z,4.97
2022-09-24T21:07:40.130Z,8.07
2022-09-24T21:10:09.298Z,3.92
2022-09-24T21:12:37.340Z,9.00
2022-09-24T21:15:08.301Z,5.15
2022-09-24T21:17:35.145Z,5.63
2022-09-24T21:20:02.329Z,4.20
2022-09-24T21:22:29.251Z,2.58
2022-09-24T21:24:58.143Z,7.88
2022-09-24T21:27:24.912Z,5.68
2022-09-24T21:29:51.654Z,3.38
2022-09-24T21:32:18.634Z,4.40
2022-09-24T21:34:47.160Z,6.30
2022-09-24T21:37:16.912Z,2.47
2022-09-24T21:39:45.167Z,4.68
2022-09-24T21:42:12.294Z,4.95
2022-09-24T21:44:39.153Z,5.72
2022-09-24T21:47:05.916Z,4.28
2022-09-24T21:49:33.576Z,3.90
2022-09-24T21:52:00.495Z,3.90
2022-09-24T21:54:27.270Z,4.80
2022-09-24T21:56:54.332Z,4.28
2022-09-24T21:59:39.907Z,10.95
2022-09-24T22:02:07.098Z,4.25
2022-09-24T22:04:33.950Z,6.47
2022-09-24T22:07:00.812Z,3.05
2022-09-24T22:09:27.731Z,6.63
2022-09-24T22:11:55.921Z,4.35
2022-09-24T22:14:23.251Z,5.90
2022-09-24T22:16:50.049Z,5.03
2022-09-24T22:19:16.828Z,7.05
2022-09-24T22:21:43.794Z,6.32
2022-09-24T22:24:10.811Z,4.13
2022-09-24T22:26:37.763Z,8.00
2022-09-24T22:29:04.574Z,6.13
2022-09-24T22:31:31.735Z,5.90
2022-09-24T22:34:17.139Z,2.92
2022-09-24T22:36:43.799Z,3.47
2022-09-24T22:39:10.591Z,8.80
2022-09-24T22:41:39.130Z,8.98
2022-09-24T22:44:06.526Z,4.93
2022-09-24T22:46:34.166Z,3.78
2022-09-24T22:49:01.461Z,6.18
2022-09-24T22:51:28.416Z,9.60
2022-09-24T22:53:55.634Z,5.28
2022-09-24T22:56:23.979Z,1.42
2022-09-24T22:59:00.774Z,5.00
2022-09-24T23:01:28.646Z,5.20
2022-09-24T23:03:55.987Z,6.05
2022-09-24T23:06:23.221Z,4.03
2022-09-24T23:08:50.100Z,7.35
2022-09-24T23:11:21.619Z,7.07
2022-09-24T23:13:52.755Z,4.85
2022-09-24T23:16:24.659Z,2.35
2022-09-24T23:18:56.119Z,5.82
2022-09-24T23:21:23.805Z,4.70
2022-09-24T23:23:54.426Z,7.60
2022-09-24T23:26:21.597Z,6.57
2022-09-24T23:28:52.812Z,3.33
2022-09-24T23:31:22.052Z,5.45
2022-09-24T23:33:49.735Z,5.43
2022-09-24T23:36:16.589Z,5.25
2022-09-24T23:38:43.745Z,3.35
2022-09-24T23:41:10.911Z,10.02
2022-09-24T23:43:37.682Z,3.92
2022-09-24T23:46:04.699Z,8.02
2022-09-24T23:48:31.634Z,5.88
2022-09-24T23:51:01.135Z,7.88
2022-09-24T23:53:28.025Z,5.82
2022-09-24T23:55:56.199Z,6.07
2022-09-24T23:58:23.585Z,5.80
